createdAt,value
2022-09-07T00:02:14.882Z,101065.91
2022-09-07T00:04:44.739Z,101069.66
2022-09-07T00:07:17.184Z,101069.28
2022-09-07T00:09:46.961Z,101059.75
2022-09-07T00:12:16.914Z,101054.38
2022-09-07T00:14:46.817Z,101072.63
2022-09-07T00:17:16.648Z,101056.69
2022-09-07T00:19:46.643Z,101053.56
2022-09-07T00:22:19.170Z,101051.94
2022-09-07T00:24:49.011Z,101039.09
2022-09-07T00:27:18.884Z,101042.84
2022-09-07T00:29:48.706Z,101030.03
2022-09-07T00:32:18.695Z,101031.03
2022-09-07T00:34:52.103Z,101023.63
2022-09-07T00:37:24.652Z,101018.88
2022-09-07T00:39:55.611Z,101026.38
2022-09-07T00:42:25.650Z,101014.75
2022-09-07T00:45:15.361Z,101014.00
2022-09-07T00:47:53.463Z,101014.81
2022-09-07T00:50:26.667Z,101018.56
2022-09-07T00:53:11.322Z,101023.94
2022-09-07T00:55:47.025Z,101032.66
2022-09-07T00:58:17.176Z,101032.66
2022-09-07T01:00:49.491Z,101029.34
2022-09-07T01:03:21.389Z,101023.13
2022-09-07T01:05:56.611Z,101017.75
2022-09-07T01:08:29.885Z,101026.66
2022-09-07T01:11:01.189Z,101011.97
2022-09-07T01:13:33.034Z,101020.28
2022-09-07T01:16:12.672Z,101021.09
2022-09-07T01:18:51.683Z,101018.22
2022-09-07T01:21:28.134Z,101020.31
2022-09-07T01:24:21.923Z,101021.97
2022-09-07T01:27:36.855Z,101010.16
2022-09-07T01:30:09.844Z,101006.63
2022-09-07T01:33:00.211Z,101011.63
2022-09-07T01:35:39.210Z,101012.03
2022-09-07T01:38:18.181Z,101018.47
2022-09-07T01:40:56.267Z,101006.25
2022-09-07T01:43:36.856Z,101011.25
2022-09-07T01:46:12.024Z,101009.41
2022-09-07T01:48:43.725Z,101012.53
2022-09-07T01:51:16.139Z,101016.25
2022-09-07T01:53:52.969Z,101014.63
2022-09-07T01:56:27.430Z,101019.19
2022-09-07T01:59:06.420Z,101020.00
2022-09-07T02:01:42.579Z,101012.13
2022-09-07T02:04:15.728Z,101012.56
2022-09-07T02:06:51.474Z,101009.72
2022-09-07T02:09:28.360Z,101001.03
2022-09-07T02:11:58.518Z,100998.53
2022-09-07T02:14:37.228Z,101000.22
2022-09-07T02:17:14.935Z,100993.16
2022-09-07T02:19:51.273Z,100985.53
2022-09-07T02:22:29.457Z,100979.53
2022-09-07T02:25:03.701Z,100983.25
2022-09-07T02:27:41.610Z,100986.16
2022-09-07T02:30:15.919Z,100989.88
2022-09-07T02:32:48.902Z,100982.03
2022-09-07T02:35:19.055Z,100990.72
2022-09-07T02:37:51.360Z,100989.72
2022-09-07T02:40:21.550Z,100978.94
2022-09-07T02:42:52.019Z,100975.84
2022-09-07T02:45:24.828Z,100986.63
2022-09-07T02:48:12.882Z,100975.84
2022-09-07T02:50:52.955Z,100993.06
2022-09-07T02:53:54.329Z,100984.97
2022-09-07T02:56:38.147Z,100995.75
2022-09-07T02:59:16.973Z,100993.28
2022-09-07T03:01:59.823Z,100991.84
2022-09-07T03:04:43.500Z,100989.16
2022-09-07T03:07:17.046Z,100989.16
2022-09-07T03:09:51.221Z,100987.50
2022-09-07T03:12:21.120Z,100977.16
2022-09-07T03:14:51.235Z,100979.25
2022-09-07T03:17:23.643Z,100984.44
2022-09-07T03:19:53.467Z,100980.94
2022-09-07T03:22:23.300Z,100980.09
2022-09-07T03:24:53.128Z,100981.16
2022-09-07T03:27:22.925Z,100979.50
2022-09-07T03:29:52.819Z,100975.97
2022-09-07T03:32:25.227Z,100979.09
2022-09-07T03:34:55.248Z,100976.63
2022-09-07T03:37:28.127Z,100976.41
2022-09-07T03:39:58.190Z,100978.47
2022-09-07T03:42:28.072Z,100972.25
2022-09-07T03:44:57.904Z,100965.44
2022-09-07T03:47:30.560Z,100971.03
2022-09-07T03:50:00.417Z,100966.69
2022-09-07T03:52:30.255Z,100964.44
2022-09-07T03:55:00.221Z,100972.72
2022-09-07T03:57:30.077Z,100967.75
2022-09-07T04:00:00.002Z,100960.94
2022-09-07T04:02:32.456Z,100968.41
2022-09-07T04:05:02.360Z,100957.03
2022-09-07T04:07:32.216Z,100946.69
2022-09-07T04:10:02.017Z,100943.19
2022-09-07T04:12:31.847Z,100939.25
2022-09-07T04:15:01.655Z,100931.41
2022-09-07T04:17:34.071Z,100928.09
2022-09-07T04:20:04.697Z,100931.84
2022-09-07T04:22:34.539Z,100921.88
2022-09-07T04:25:04.417Z,100917.97
2022-09-07T04:27:34.207Z,100926.44
2022-09-07T04:30:04.089Z,100926.44
2022-09-07T04:33:00.360Z,100927.72
2022-09-07T04:35:30.214Z,100931.00
2022-09-07T04:38:00.212Z,100923.75
2022-09-07T04:40:30.137Z,100921.28
2022-09-07T04:43:05.506Z,100925.66
2022-09-07T04:45:35.342Z,100927.09
2022-09-07T04:48:08.262Z,100921.94
2022-09-07T04:50:38.240Z,100917.38
2022-09-07T04:53:08.096Z,100925.66
2022-09-07T04:55:37.988Z,100919.84
2022-09-07T04:58:07.903Z,100924.41
2022-09-07T05:00:39.422Z,100926.88
2022-09-07T05:03:12.048Z,100927.72
2022-09-07T05:05:41.975Z,100930.59
2022-09-07T05:08:12.060Z,100931.63
2022-09-07T05:10:41.917Z,100930.38
2022-09-07T05:13:11.741Z,100930.59
2022-09-07T05:15:41.645Z,100924.78
2022-09-07T05:18:14.251Z,100928.31
2022-09-07T05:20:44.321Z,100929.13
2022-09-07T05:23:14.278Z,100932.19
2022-09-07T05:25:46.696Z,100919.56
2022-09-07T05:28:19.395Z,100926.34
2022-09-07T05:36:33.458Z,100923.75
2022-09-07T05:39:03.289Z,100912.53
2022-09-07T05:41:33.128Z,100910.03
2022-09-07T05:46:54.960Z,100927.56
2022-09-07T05:49:27.394Z,100923.16
2022-09-07T05:51:57.276Z,100924.22
2022-09-07T05:54:27.098Z,100914.25
2022-09-07T05:56:58.094Z,100916.28
2022-09-07T05:59:28.011Z,100906.31
2022-09-07T06:01:57.937Z,100909.97
2022-09-07T06:04:30.478Z,100919.50
2022-09-07T06:12:43.428Z,100925.81
2022-09-07T06:15:16.990Z,100932.59
2022-09-07T06:17:46.896Z,100930.88
2022-09-07T06:20:19.407Z,100921.25
2022-09-07T06:22:49.242Z,100924.69
2022-09-07T06:25:19.241Z,100921.72
2022-09-07T06:27:52.474Z,100917.69
2022-09-07T06:30:22.533Z,100922.06
2022-09-07T06:32:52.800Z,100922.00
2022-09-07T06:35:25.392Z,100924.38
2022-09-07T06:37:55.255Z,100930.94
2022-09-07T06:40:25.669Z,100921.78
2022-09-07T06:42:55.544Z,100929.41
2022-09-07T06:45:26.231Z,100918.41
2022-09-07T06:47:59.797Z,100927.25
2022-09-07T06:50:32.396Z,100925.88
2022-09-07T06:55:52.044Z,100913.72
2022-09-07T06:58:23.170Z,100909.78
2022-09-07T07:00:56.929Z,100921.19
2022-09-07T07:03:27.166Z,100918.72
2022-09-07T07:06:00.343Z,100912.50
2022-09-07T07:08:30.475Z,100920.38
2022-09-07T07:11:05.100Z,100923.84
2022-09-07T07:13:34.977Z,100921.44
2022-09-07T07:16:06.069Z,100916.34
2022-09-07T07:18:36.909Z,100906.53
2022-09-07T07:21:11.941Z,100901.34
2022-09-07T07:23:42.387Z,100904.00
2022-09-07T07:26:15.711Z,100902.31
2022-09-07T07:29:03.825Z,100891.88
2022-09-07T07:31:36.316Z,100886.47
2022-09-07T07:34:06.468Z,100880.13
2022-09-07T07:36:38.892Z,100886.47
2022-09-07T07:42:03.251Z,100891.81
2022-09-07T07:44:35.274Z,100889.94
2022-09-07T07:47:05.252Z,100883.72
2022-09-07T07:49:35.071Z,100886.06
2022-09-07T07:54:58.301Z,100889.59
2022-09-07T07:57:28.148Z,100883.38
2022-09-07T07:59:58.671Z,100889.44
2022-09-07T08:02:29.107Z,100899.69
2022-09-07T08:04:58.933Z,100895.63
2022-09-07T08:07:31.338Z,100894.56
2022-09-07T08:10:01.118Z,100887.41
2022-09-07T08:12:31.352Z,100890.97
2022-09-07T08:15:01.245Z,100881.44
2022-09-07T08:17:31.928Z,100877.44
2022-09-07T08:20:01.650Z,100876.50
2022-09-07T08:22:34.956Z,100882.88
2022-09-07T08:25:05.361Z,100888.72
2022-09-07T08:27:35.153Z,100894.31
2022-09-07T08:30:05.105Z,100887.09
2022-09-07T08:32:34.833Z,100892.47
2022-09-07T08:35:04.753Z,100907.25
2022-09-07T08:37:37.046Z,100894.72
2022-09-07T08:40:07.402Z,100901.59
2022-09-07T08:42:51.926Z,100903.91
2022-09-07T08:45:30.349Z,100885.75
2022-09-07T08:48:00.814Z,100886.50
2022-09-07T08:50:35.369Z,100887.97
2022-09-07T08:53:15.259Z,100888.31
2022-09-07T08:55:52.408Z,100893.63
2022-09-07T08:58:48.150Z,100886.53
2022-09-07T09:01:32.277Z,100878.91
2022-09-07T09:04:19.409Z,100880.03
2022-09-07T09:07:05.894Z,100868.47
2022-09-07T09:09:53.527Z,100867.03
2022-09-07T09:12:37.493Z,100860.22
2022-09-07T09:15:18.451Z,100862.69
2022-09-07T09:17:55.453Z,100867.47
2022-09-07T09:20:33.919Z,100858.50
2022-09-07T09:23:12.373Z,100859.66
2022-09-07T09:25:53.837Z,100862.16
2022-09-07T09:28:28.814Z,100848.47
2022-09-07T09:31:01.649Z,100848.38
2022-09-07T09:33:31.899Z,100849.03
2022-09-07T09:36:04.978Z,100845.03
2022-09-07T09:38:37.411Z,100840.56
2022-09-07T09:41:11.895Z,100848.13
2022-09-07T09:43:46.234Z,100843.06
2022-09-07T09:46:22.269Z,100843.44
2022-09-07T09:49:03.573Z,100847.03
2022-09-07T09:54:29.073Z,100854.25
2022-09-07T09:57:01.681Z,100842.03
2022-09-07T10:05:29.973Z,100832.84
2022-09-07T10:08:02.711Z,100831.50
2022-09-07T10:10:32.961Z,100830.97
2022-09-07T10:13:08.786Z,100830.88
2022-09-07T10:15:41.035Z,100831.06
2022-09-07T10:18:21.460Z,100824.16
2022-09-07T10:20:51.789Z,100817.84
2022-09-07T10:23:25.402Z,100814.88
2022-09-07T10:25:56.477Z,100811.06
2022-09-07T10:29:06.544Z,100813.41
2022-09-07T10:31:24.662Z,100805.50
2022-09-07T10:37:04.578Z,100797.16
2022-09-07T10:39:38.599Z,100801.31
2022-09-07T10:42:21.476Z,100787.53
2022-09-07T10:45:05.957Z,100784.16
2022-09-07T10:47:48.033Z,100794.06
2022-09-07T10:50:27.440Z,100798.78
2022-09-07T10:53:36.996Z,100794.75
2022-09-07T10:56:08.129Z,100790.97
2022-09-07T10:59:05.116Z,100793.31
2022-09-07T11:01:52.813Z,100803.13
2022-09-07T11:04:39.947Z,100796.25
2022-09-07T11:07:23.245Z,100798.03
2022-09-07T11:10:02.336Z,100790.31
2022-09-07T11:12:35.080Z,100789.69
2022-09-07T11:15:22.484Z,100786.25
2022-09-07T11:18:01.091Z,100787.53
2022-09-07T11:20:35.574Z,100783.44
2022-09-07T11:23:15.686Z,100780.56
2022-09-07T11:25:55.341Z,100779.47
2022-09-07T11:28:31.025Z,100775.06
2022-09-07T11:31:05.273Z,100760.84
2022-09-07T11:36:53.920Z,100772.44
2022-09-07T11:39:29.272Z,100777.88
2022-09-07T11:42:42.850Z,100775.25
2022-09-07T11:44:58.630Z,100768.84
2022-09-07T11:47:33.284Z,100772.44
2022-09-07T11:50:06.067Z,100785.38
2022-09-07T11:52:41.644Z,100778.09
2022-09-07T11:55:15.704Z,100778.81
2022-09-07T11:58:02.873Z,100794.44
2022-09-07T12:00:43.085Z,100782.72
2022-09-07T12:03:40.783Z,100773.72
2022-09-07T12:06:40.260Z,100769.06
2022-09-07T12:09:29.422Z,100769.34
2022-09-07T12:12:18.460Z,100762.56
2022-09-07T12:15:00.662Z,100766.59
2022-09-07T12:17:42.234Z,100762.66
2022-09-07T12:20:19.740Z,100757.38
2022-09-07T12:23:07.089Z,100753.25
2022-09-07T12:25:39.512Z,100751.84
2022-09-07T12:28:21.831Z,100749.28
2022-09-07T12:31:00.808Z,100757.16
2022-09-07T12:33:36.651Z,100757.16
2022-09-07T12:36:44.995Z,100749.84
2022-09-07T12:39:25.166Z,100743.44
2022-09-07T12:42:38.943Z,100745.63
2022-09-07T12:45:38.773Z,100742.91
2022-09-07T12:48:21.266Z,100743.44
2022-09-07T12:50:59.517Z,100740.19
2022-09-07T12:53:39.093Z,100739.88
2022-09-07T12:56:22.538Z,100741.41
2022-09-07T12:59:17.488Z,100732.69
2022-09-07T13:02:00.418Z,100731.28
2022-09-07T13:04:41.162Z,100736.16
2022-09-07T13:08:01.716Z,100724.16
2022-09-07T13:10:40.112Z,100723.56
2022-09-07T13:14:02.586Z,100731.13
2022-09-07T13:17:15.876Z,100722.41
2022-09-07T13:19:52.363Z,100719.94
2022-09-07T13:22:51.974Z,100719.91
2022-09-07T13:25:50.607Z,100715.06
2022-09-07T13:28:43.331Z,100712.00
2022-09-07T13:31:32.299Z,100714.19
2022-09-07T13:34:48.535Z,100711.09
2022-09-07T13:37:22.402Z,100704.63
2022-09-07T13:39:55.617Z,100699.19
2022-09-07T13:42:28.460Z,100701.69
2022-09-07T13:45:00.287Z,100689.75
2022-09-07T13:47:43.507Z,100702.56
2022-09-07T13:50:38.713Z,100697.66
2022-09-07T13:53:25.417Z,100693.06
2022-09-07T13:56:05.474Z,100695.25
2022-09-07T13:58:38.551Z,100690.38
2022-09-07T14:01:16.764Z,100695.25
2022-09-07T14:03:51.737Z,100690.38
2022-09-07T14:06:38.525Z,100689.84
2022-09-07T14:09:16.145Z,100691.75
2022-09-07T14:11:48.131Z,100692.03
2022-09-07T14:14:20.210Z,100694.25
2022-09-07T14:16:52.975Z,100697.00
2022-09-07T14:19:26.334Z,100686.41
2022-09-07T14:22:03.929Z,100689.44
2022-09-07T14:24:36.772Z,100694.59
2022-09-07T14:27:08.321Z,100682.09
2022-09-07T14:29:39.940Z,100691.31
2022-09-07T14:32:16.390Z,100689.69
2022-09-07T14:34:47.663Z,100691.31
2022-09-07T14:37:22.398Z,100686.94
2022-09-07T14:39:54.093Z,100682.88
2022-09-07T14:42:26.520Z,100680.66
2022-09-07T14:45:21.244Z,100679.31
2022-09-07T14:47:52.567Z,100676.25
2022-09-07T14:50:25.581Z,100671.34
2022-09-07T14:55:50.942Z,100685.78
2022-09-07T14:58:26.675Z,100677.84
2022-09-07T15:04:02.243Z,100682.78
2022-09-07T15:09:39.926Z,100680.59
2022-09-07T15:12:29.942Z,100681.69
2022-09-07T15:15:12.988Z,100672.16
2022-09-07T15:17:43.499Z,100675.16
2022-09-07T15:20:39.768Z,100676.78
2022-09-07T15:23:13.286Z,100659.38
2022-09-07T15:25:50.687Z,100662.13
2022-09-07T15:34:12.727Z,100656.47
2022-09-07T15:36:44.589Z,100667.38
2022-09-07T15:39:20.482Z,100657.56
2022-09-07T15:41:53.436Z,100662.94
2022-09-07T15:44:26.558Z,100656.41
2022-09-07T15:49:51.404Z,100655.59
2022-09-07T15:52:21.575Z,100649.34
2022-09-07T15:54:51.355Z,100650.44
2022-09-07T16:00:15.345Z,100646.06
2022-09-07T16:05:35.396Z,100641.75
2022-09-07T16:11:04.290Z,100635.22
2022-09-07T16:13:37.433Z,100639.53
2022-09-07T16:16:08.608Z,100633.81
2022-09-07T16:18:39.520Z,100638.44
2022-09-07T16:21:12.268Z,100625.63
2022-09-07T16:23:44.335Z,100627.81
2022-09-07T16:26:14.726Z,100625.34
2022-09-07T16:28:50.071Z,100624.25
2022-09-07T16:31:22.269Z,100618.00
2022-09-07T16:33:52.353Z,100618.50
2022-09-07T16:36:23.737Z,100616.84
2022-09-07T16:38:59.173Z,100619.03
2022-09-07T16:41:31.770Z,100611.94
2022-09-07T16:44:04.585Z,100611.94
2022-09-07T16:46:35.404Z,100612.78
2022-09-07T16:49:05.619Z,100607.59
2022-09-07T16:51:35.836Z,100602.44
2022-09-07T16:54:06.019Z,100608.94
2022-09-07T16:56:39.091Z,100609.19
2022-09-07T16:59:18.262Z,100605.09
2022-09-07T17:01:48.149Z,100615.13
2022-09-07T17:04:18.930Z,100619.75
2022-09-07T17:06:49.077Z,100619.47
2022-09-07T17:09:18.959Z,100623.81
2022-09-07T17:11:48.900Z,100620.53
2022-09-07T17:14:21.243Z,100618.91
2022-09-07T17:16:51.045Z,100618.34
2022-09-07T17:19:29.714Z,100619.16
2022-09-07T17:22:00.766Z,100616.47
2022-09-07T17:24:32.184Z,100612.38
2022-09-07T17:27:03.381Z,100615.09
2022-09-07T17:29:37.666Z,100621.03
2022-09-07T17:32:24.591Z,100625.66
2022-09-07T17:34:55.493Z,100635.44
2022-09-07T17:37:25.673Z,100682.13
2022-09-07T17:39:56.646Z,100681.75
2022-09-07T17:43:38.895Z,100674.59
2022-09-07T17:45:21.168Z,100658.78
2022-09-07T17:47:51.621Z,100663.00
2022-09-07T17:50:21.452Z,100634.97
2022-09-07T17:52:54.157Z,100646.66
2022-09-07T17:55:23.960Z,100646.56
2022-09-07T17:57:53.731Z,100628.31
2022-09-07T18:00:26.158Z,100623.97
2022-09-07T18:02:56.093Z,100630.50
2022-09-07T18:05:26.043Z,100618.78
2022-09-07T18:07:55.829Z,100611.41
2022-09-07T18:10:26.622Z,100620.34
2022-09-07T18:12:57.130Z,100631.66
2022-09-07T18:15:29.483Z,100627.31
2022-09-07T18:17:59.821Z,100627.84
2022-09-07T18:20:29.691Z,100630.06
2022-09-07T18:22:59.451Z,100633.34
2022-09-07T18:25:29.326Z,100652.31
2022-09-07T18:30:51.723Z,100658.81
2022-09-07T18:33:21.986Z,100656.38
2022-09-07T18:35:52.603Z,100663.69
2022-09-07T18:38:22.446Z,100665.56
2022-09-07T18:40:52.207Z,100662.03
2022-09-07T18:43:22.078Z,100667.72
2022-09-07T18:45:55.070Z,100673.41
2022-09-07T18:48:25.022Z,100676.13
2022-09-07T18:50:56.463Z,100677.19
2022-09-07T18:53:26.238Z,100679.91
2022-09-07T18:55:56.424Z,100676.38
2022-09-07T18:58:26.289Z,100679.34
2022-09-07T19:01:01.591Z,100677.09
2022-09-07T19:03:31.604Z,100674.38
2022-09-07T19:06:03.778Z,100673.81
2022-09-07T19:08:34.288Z,100668.41
2022-09-07T19:11:08.583Z,100675.13
2022-09-07T19:13:39.081Z,100668.88
2022-09-07T19:16:15.012Z,100661.81
2022-09-07T19:18:48.270Z,100660.19
2022-09-07T19:21:19.869Z,100671.03
2022-09-07T19:23:57.077Z,100674.81
2022-09-07T19:26:27.833Z,100669.13
2022-09-07T19:29:00.364Z,100675.31
2022-09-07T19:31:34.143Z,100672.03
2022-09-07T19:34:05.490Z,100678.53
2022-09-07T19:36:38.371Z,100675.00
2022-09-07T19:39:08.604Z,100677.97
2022-09-07T19:41:41.902Z,100674.94
2022-09-07T19:44:11.987Z,100671.69
2022-09-07T19:46:45.193Z,100671.38
2022-09-07T19:49:15.211Z,100674.06
2022-09-07T19:51:45.294Z,100674.06
2022-09-07T19:54:15.831Z,100672.94
2022-09-07T19:56:45.762Z,100667.53
2022-09-07T19:59:19.597Z,100667.78
2022-09-07T20:01:53.820Z,100662.59
2022-09-07T20:04:24.029Z,100644.72
2022-09-07T20:06:54.697Z,100654.38
2022-09-07T20:09:25.687Z,100657.59
2022-09-07T20:11:55.496Z,100654.31
2022-09-07T20:14:25.460Z,100649.41
2022-09-07T20:16:57.947Z,100641.78
2022-09-07T20:19:27.680Z,100642.59
2022-09-07T20:21:57.965Z,100639.56
2022-09-07T20:24:27.872Z,100639.00
2022-09-07T20:26:58.107Z,100635.72
2022-09-07T20:29:29.049Z,100628.94
2022-09-07T20:32:02.897Z,100618.59
2022-09-07T20:34:33.119Z,100609.09
2022-09-07T20:37:02.901Z,100608.50
2022-09-07T20:39:36.995Z,100607.13
2022-09-07T20:42:10.606Z,100615.50
2022-09-07T20:44:40.367Z,100604.06
2022-09-07T20:47:12.743Z,100612.41
2022-09-07T20:49:42.477Z,100618.09
2022-09-07T20:52:12.263Z,100606.44
2022-09-07T20:54:42.010Z,100607.50
2022-09-07T20:57:11.949Z,100604.22
2022-09-07T20:59:41.699Z,100604.47
2022-09-07T21:02:14.538Z,100602.03
2022-09-07T21:04:45.113Z,100593.56
2022-09-07T21:07:14.834Z,100589.22
2022-09-07T21:09:44.612Z,100584.81
2022-09-07T21:12:14.362Z,100590.50
2022-09-07T21:14:45.639Z,100606.97
2022-09-07T21:17:18.011Z,100601.00
2022-09-07T21:19:47.900Z,100604.78
2022-09-07T21:22:17.662Z,100605.28
2022-09-07T21:24:47.815Z,100598.22
2022-09-07T21:27:17.753Z,100597.09
2022-09-07T21:29:47.532Z,100582.16
2022-09-07T21:32:19.919Z,100579.66
2022-09-07T21:34:49.618Z,100583.44
2022-09-07T21:37:34.318Z,100591.00
2022-09-07T21:40:05.855Z,100582.63
2022-09-07T21:42:35.775Z,100581.81
2022-09-07T21:45:07.106Z,100581.81
2022-09-07T21:47:39.438Z,100574.19
2022-09-07T21:50:09.934Z,100581.47
2022-09-07T21:52:40.344Z,100587.16
2022-09-07T21:55:11.282Z,100589.53
2022-09-07T21:57:41.194Z,100577.63
2022-09-07T22:00:12.038Z,100578.47
2022-09-07T22:02:44.420Z,100581.97
2022-09-07T22:05:14.158Z,100581.16
2022-09-07T22:07:43.900Z,100581.16
2022-09-07T22:10:13.947Z,100591.41
2022-09-07T22:12:43.689Z,100590.84
2022-09-07T22:15:13.811Z,100585.69
2022-09-07T22:17:46.496Z,100583.22
2022-09-07T22:20:16.254Z,100587.56
2022-09-07T22:22:46.395Z,100587.00
2022-09-07T22:25:16.365Z,100590.22
2022-09-07T22:27:46.101Z,100596.94
2022-09-07T22:30:16.362Z,100597.19
2022-09-07T22:32:50.993Z,100587.06
2022-09-07T22:35:21.723Z,100594.16
2022-09-07T22:37:51.429Z,100594.16
2022-09-07T22:40:21.174Z,100592.47
2022-09-07T22:42:51.225Z,100590.84
2022-09-07T22:45:20.981Z,100590.25
2022-09-07T22:47:53.380Z,100593.47
2022-09-07T22:50:23.211Z,100597.44
2022-09-07T22:52:52.925Z,100597.44
2022-09-07T22:55:22.658Z,100596.88
2022-09-07T22:57:52.445Z,100595.72
2022-09-07T23:00:22.339Z,100586.78
2022-09-07T23:02:57.550Z,100590.00
2022-09-07T23:05:27.307Z,100580.00
2022-09-07T23:07:57.139Z,100566.16
2022-09-07T23:10:27.102Z,100571.22
2022-09-07T23:12:56.939Z,100570.66
2022-09-07T23:15:26.746Z,100558.19
2022-09-07T23:17:59.484Z,100553.28
2022-09-07T23:20:29.335Z,100557.06
2022-09-07T23:22:59.099Z,100554.34
2022-09-07T23:25:29.219Z,100553.19
2022-09-07T23:27:59.000Z,100554.25
2022-09-07T23:30:28.734Z,100539.34
2022-09-07T23:33:01.133Z,100547.13
2022-09-07T23:35:30.990Z,100546.06
2022-09-07T23:38:00.761Z,100546.06
2022-09-07T23:40:31.884Z,100543.63
2022-09-07T23:43:01.720Z,100541.13
2022-09-07T23:45:31.764Z,100545.97
2022-09-07T23:48:04.513Z,100535.38
2022-09-07T23:50:34.274Z,100540.78
2022-09-07T23:53:04.410Z,100534.56
2022-09-07T23:55:34.090Z,100532.94
2022-09-07T23:58:03.879Z,100532.94
